Time;durP1;ratioP1;P1;durP2;ratioP2;P2;SDS_P1;SDS_P2;PMS_P1;PMS_P2;Temp;Humidity;BMP_temperature;BMP_pressure;BME280_temperature;BME280_humidity;BME280_pressure;Samples;Min_cycle;Max_cycle;Signal;HPM_P1;HPM_P2
2022/06/15 00:01:32;;;;;;;5.00;1.77;;;16.50;57.70;;;;;;9181544;19;20019;-69
2022/06/15 00:04:37;;;;;;;4.70;2.00;;;16.40;57.70;;;;;;9182884;19;20018;-67
2022/06/15 00:07:42;;;;;;;7.80;2.05;;;16.40;57.80;;;;;;9181266;19;20006;-68
2022/06/15 00:10:47;;;;;;;10.77;2.17;;;16.40;57.90;;;;;;9184004;19;20014;-66
2022/06/15 00:13:57;;;;;;;7.55;2.53;;;16.30;57.90;;;;;;9183915;19;20015;-66
2022/06/15 00:17:02;;;;;;;7.78;2.38;;;16.30;58.10;;;;;;9179712;19;20015;-67
2022/06/15 00:20:08;;;;;;;16.85;2.10;;;16.20;58.00;;;;;;9184405;19;20476;-66
2022/06/15 00:23:13;;;;;;;6.03;2.05;;;16.20;58.10;;;;;;9180439;19;20023;-66
2022/06/15 00:26:20;;;;;;;5.32;1.92;;;16.20;58.20;;;;;;9178175;19;20036;-67
2022/06/15 00:29:27;;;;;;;9.35;2.65;;;16.20;58.30;;;;;;9178411;19;20123;-66
2022/06/15 00:32:32;;;;;;;6.00;2.75;;;16.20;58.50;;;;;;9177617;19;20022;-66
2022/06/15 00:35:37;;;;;;;6.82;2.58;;;16.10;58.40;;;;;;9178318;19;20019;-69
2022/06/15 00:38:45;;;;;;;9.50;2.72;;;16.10;58.50;;;;;;9175799;19;20018;-67
2022/06/15 00:41:52;;;;;;;4.85;2.10;;;16.00;59.20;;;;;;9176850;19;20021;-68
2022/06/15 00:45:00;;;;;;;7.43;2.30;;;16.00;58.60;;;;;;9178979;19;20052;-67
2022/06/15 00:48:05;;;;;;;9.38;3.80;;;16.00;58.80;;;;;;9178451;19;20487;-67
2022/06/15 00:51:10;;;;;;;10.43;2.70;;;15.90;58.70;;;;;;9177535;19;20022;-67
2022/06/15 00:54:17;;;;;;;6.85;2.40;;;15.90;58.80;;;;;;9175549;19;20713;-67
2022/06/15 00:57:23;;;;;;;8.35;2.10;;;15.90;59.00;;;;;;9177479;19;20011;-67
2022/06/15 01:00:32;;;;;;;5.22;2.42;;;15.80;58.90;;;;;;9176079;19;20018;-68
2022/06/15 01:03:37;;;;;;;9.80;2.60;;;15.80;59.10;;;;;;9175438;19;20014;-67
2022/06/15 01:06:50;;;;;;;10.45;2.50;;;15.70;59.10;;;;;;9176752;19;20018;-67
2022/06/15 01:10:04;;;;;;;4.27;2.50;;;15.70;59.30;;;;;;9177971;19;20014;-67
2022/06/15 01:13:26;;;;;;;9.38;2.67;;;15.70;59.30;;;;;;9176248;19;20022;-68
2022/06/15 01:16:41;;;;;;;7.10;2.47;;;15.70;59.50;;;;;;9170409;19;20122;-67
2022/06/15 01:20:08;;;;;;;11.45;2.80;;;15.60;59.50;;;;;;9176856;19;20066;-67
2022/06/15 01:23:53;;;;;;;9.88;2.78;;;15.60;59.70;;;;;;9172615;19;20015;-68
2022/06/15 01:27:25;;;;;;;9.63;2.65;;;15.60;59.80;;;;;;9175118;19;20011;-67
2022/06/15 01:30:41;;;;;;;9.18;2.95;;;15.50;59.80;;;;;;9173935;19;20068;-66
2022/06/15 01:33:56;;;;;;;6.97;2.97;;;15.50;59.70;;;;;;9172593;19;20015;-67
2022/06/15 01:37:10;;;;;;;13.57;3.00;;;15.50;59.80;;;;;;9177406;19;20482;-66
2022/06/15 01:40:18;;;;;;;;;;;15.40;59.80;;;;;;9175435;19;20491;-67
2022/06/15 01:43:29;;;;;;;7.07;2.33;;;15.40;59.60;;;;;;9172606;19;19926;-66
2022/06/15 01:46:39;;;;;;;9.65;2.75;;;15.40;59.70;;;;;;9174835;19;20009;-67
2022/06/15 01:49:47;;;;;;;11.40;2.80;;;15.30;59.80;;;;;;9174844;19;20681;-67
2022/06/15 01:52:58;;;;;;;11.48;3.10;;;15.40;60.00;;;;;;9174109;19;20018;-67
2022/06/15 01:56:10;;;;;;;9.85;2.92;;;15.30;60.10;;;;;;9173334;19;20014;-67
2022/06/15 01:59:23;;;;;;;10.05;2.90;;;15.30;60.20;;;;;;9183080;19;20990;-67
2022/06/15 02:02:38;;;;;;;10.52;3.22;;;15.30;60.30;;;;;;9181108;19;20029;-68
2022/06/15 02:05:50;;;;;;;9.73;3.38;;;15.20;60.40;;;;;;9184964;19;20334;-67
2022/06/15 02:09:00;;;;;;;9.07;2.92;;;15.20;60.40;;;;;;9181098;19;20011;-67
2022/06/15 02:12:11;;;;;;;8.57;2.97;;;15.20;60.50;;;;;;9183008;19;20019;-67
2022/06/15 02:15:25;;;;;;;5.00;2.85;;;15.10;60.50;;;;;;9181805;19;20014;-68
2022/06/15 02:18:37;;;;;;;6.43;2.90;;;15.10;60.60;;;;;;9178238;19;20018;-67
2022/06/15 02:21:48;;;;;;;5.72;3.03;;;15.10;60.80;;;;;;9182068;19;20019;-66
2022/06/15 02:24:57;;;;;;;8.18;3.10;;;15.00;60.70;;;;;;9182860;19;20029;-67
2022/06/15 02:28:04;;;;;;;6.85;3.42;;;15.10;60.90;;;;;;9180758;19;20010;-68
2022/06/15 02:31:09;;;;;;;6.97;3.10;;;15.00;60.90;;;;;;9181582;19;20053;-68
2022/06/15 02:34:18;;;;;;;11.63;3.22;;;15.00;61.00;;;;;;9182192;19;20011;-69
2022/06/15 02:37:24;;;;;;;8.35;3.00;;;14.90;61.10;;;;;;9181534;19;20085;-66
2022/06/15 02:40:29;;;;;;;8.93;3.28;;;14.90;61.10;;;;;;9182530;19;20038;-66
2022/06/15 02:43:36;;;;;;;10.10;3.55;;;14.90;61.20;;;;;;9178049;19;20453;-66
2022/06/15 02:46:45;;;;;;;7.90;3.10;;;14.90;61.30;;;;;;9183932;19;20045;-66
2022/06/15 02:49:54;;;;;;;11.45;3.50;;;14.90;61.40;;;;;;9182409;19;20483;-66
2022/06/15 02:53:04;;;;;;;7.43;3.67;;;14.80;61.40;;;;;;9181267;19;20383;-67
2022/06/15 02:56:11;;;;;;;10.63;3.85;;;14.80;61.50;;;;;;9179937;19;20094;-66
2022/06/15 02:59:17;;;;;;;9.45;3.90;;;14.80;61.60;;;;;;9180801;19;20483;-66
2022/06/15 03:02:22;;;;;;;11.52;3.45;;;14.70;61.60;;;;;;9181264;19;20014;-66
2022/06/15 03:05:33;;;;;;;8.48;3.28;;;14.70;61.60;;;;;;9181739;19;20617;-66
2022/06/15 03:08:39;;;;;;;7.20;2.90;;;14.70;61.80;;;;;;9176852;19;20049;-66
2022/06/15 03:11:52;;;;;;;11.45;3.40;;;14.70;61.80;;;;;;9182818;19;20019;-67
2022/06/15 03:15:06;;;;;;;9.48;3.22;;;14.60;61.80;;;;;;9179650;19;20018;-67
2022/06/15 03:18:11;;;;;;;10.18;3.47;;;14.60;61.90;;;;;;9175629;19;20018;-66
2022/06/15 03:21:19;;;;;;;10.15;3.75;;;14.60;62.00;;;;;;9180869;19;20014;-66
2022/06/15 03:24:25;;;;;;;11.80;4.05;;;14.50;62.10;;;;;;9176993;19;20022;-67
2022/06/15 03:27:31;;;;;;;12.00;4.45;;;14.50;62.20;;;;;;9181087;19;20483;-66
2022/06/15 03:30:38;;;;;;;6.95;3.58;;;14.50;62.20;;;;;;9179293;19;20021;-66
2022/06/15 03:33:45;;;;;;;10.40;3.83;;;14.50;62.30;;;;;;9179391;19;20014;-66
2022/06/15 03:36:57;;;;;;;8.40;3.20;;;14.50;62.40;;;;;;9179245;19;20018;-67
2022/06/15 03:40:02;;;;;;;12.85;3.58;;;14.40;62.40;;;;;;9180936;19;20021;-66
2022/06/15 03:43:11;;;;;;;8.60;3.15;;;14.40;62.50;;;;;;9178794;19;20017;-67
2022/06/15 03:46:17;;;;;;;11.68;3.67;;;14.40;62.50;;;;;;9180283;19;20014;-67
2022/06/15 03:49:24;;;;;;;14.93;3.50;;;14.40;62.60;;;;;;9179044;19;20021;-67
2022/06/15 03:52:32;;;;;;;7.18;3.22;;;14.30;62.60;;;;;;9178556;19;20022;-67
2022/06/15 03:55:40;;;;;;;9.48;3.28;;;14.30;62.80;;;;;;9178221;19;20023;-67
2022/06/15 03:58:49;;;;;;;10.82;3.55;;;14.30;62.80;;;;;;9180285;19;20046;-67
2022/06/15 04:01:56;;;;;;;8.50;3.38;;;14.30;62.80;;;;;;9180503;19;20010;-67
2022/06/15 04:05:03;;;;;;;11.15;3.53;;;14.30;62.90;;;;;;9175601;19;20018;-67
2022/06/15 04:14:55;;;;;;;8.50;3.78;;;14.30;63.10;;;;;;9177325;19;20023;-67
2022/06/15 04:18:09;;;;;;;8.00;3.33;;;14.30;63.20;;;;;;9173053;19;20081;-67
2022/06/15 04:21:23;;;;;;;5.97;3.40;;;14.30;63.20;;;;;;9175752;19;20507;-67
2022/06/15 04:24:33;;;;;;;10.15;3.45;;;14.30;63.30;;;;;;9175734;19;20006;-67
2022/06/15 04:27:39;;;;;;;8.52;3.65;;;14.30;63.50;;;;;;9177642;19;20015;-67
2022/06/15 04:30:47;;;;;;;11.98;3.70;;;14.20;63.40;;;;;;9176466;19;20492;-67
2022/06/15 04:33:55;;;;;;;6.55;3.08;;;14.20;63.50;;;;;;9176160;19;20400;-67
2022/06/15 04:37:01;;;;;;;12.93;3.78;;;14.20;63.60;;;;;;9177709;19;20018;-67
2022/06/15 04:40:12;;;;;;;12.60;3.97;;;14.20;63.70;;;;;;9176544;19;20039;-66
2022/06/15 04:43:17;;;;;;;9.50;3.97;;;14.30;63.90;;;;;;9176478;19;20034;-66
2022/06/15 04:46:23;;;;;;;12.48;4.25;;;14.30;63.90;;;;;;9176832;19;20026;-66
2022/06/15 04:49:32;;;;;;;6.45;3.83;;;14.30;64.00;;;;;;9177143;19;20025;-66
2022/06/15 04:52:44;;;;;;;11.43;4.22;;;14.30;64.00;;;;;;9177343;19;20431;-67
2022/06/15 04:55:52;;;;;;;10.10;3.80;;;14.30;64.10;;;;;;9174956;19;20024;-67
2022/06/15 04:58:57;;;;;;;9.13;4.18;;;14.30;64.20;;;;;;9175910;19;20765;-66
2022/06/15 05:02:02;;;;;;;8.60;3.75;;;14.30;64.20;;;;;;9174160;19;20137;-68
2022/06/15 05:05:12;;;;;;;10.82;4.45;;;14.30;64.20;;;;;;9175141;19;20114;-66
2022/06/15 05:08:19;;;;;;;8.35;3.42;;;14.40;64.40;;;;;;9175213;19;20048;-67
2022/06/15 05:11:29;;;;;;;12.90;3.78;;;14.40;64.40;;;;;;9178604;19;20022;-67
2022/06/15 05:14:34;;;;;;;10.80;3.92;;;14.40;64.60;;;;;;9175803;19;20021;-67
2022/06/15 05:17:44;;;;;;;9.07;3.92;;;14.50;64.60;;;;;;9170216;19;20028;-67
2022/06/15 05:20:51;;;;;;;9.95;3.58;;;14.60;64.70;;;;;;9175445;19;20399;-67
2022/06/15 05:24:01;;;;;;;8.07;3.60;;;14.60;64.70;;;;;;9175377;19;20065;-66
2022/06/15 05:27:31;;;;;;;10.45;3.67;;;14.60;64.70;;;;;;9174595;19;20028;-66
2022/06/15 05:30:36;;;;;;;11.30;4.22;;;14.70;64.80;;;;;;9174626;19;20078;-68
2022/06/15 05:33:42;;;;;;;11.95;2.97;;;14.80;64.80;;;;;;9185425;19;20348;-67
2022/06/15 05:36:51;;;;;;;13.02;3.78;;;14.90;64.90;;;;;;9184240;19;20360;-67
2022/06/15 05:39:56;;;;;;;8.88;3.30;;;15.00;64.80;;;;;;9190086;19;20007;-66
2022/06/15 05:43:04;;;;;;;9.77;4.50;;;15.10;64.80;;;;;;9189185;19;20107;-71
2022/06/15 05:46:21;;;;;;;10.07;3.90;;;15.30;65.00;;;;;;9189379;19;20009;-67
2022/06/15 05:49:28;;;;;;;9.45;3.70;;;15.40;65.00;;;;;;9187891;19;20856;-66
2022/06/15 05:52:34;;;;;;;8.32;3.63;;;15.60;64.80;;;;;;9183094;19;20089;-67
2022/06/15 05:55:40;;;;;;;11.45;3.35;;;15.70;64.80;;;;;;9183934;19;20011;-67
2022/06/15 05:58:47;;;;;;;12.77;3.50;;;15.90;64.80;;;;;;9184952;19;20054;-67
2022/06/15 06:01:52;;;;;;;15.80;3.05;;;16.10;64.80;;;;;;9183342;19;20002;-66
2022/06/15 06:04:57;;;;;;;11.63;3.30;;;16.30;64.70;;;;;;9183055;19;20018;-67
2022/06/15 06:08:02;;;;;;;6.80;2.92;;;16.50;64.60;;;;;;9183124;19;20022;-66
2022/06/15 06:11:07;;;;;;;9.75;3.10;;;16.60;64.40;;;;;;9180051;19;20412;-66
2022/06/15 06:14:15;;;;;;;7.18;3.10;;;16.80;64.10;;;;;;9181974;19;20019;-67
2022/06/15 06:17:20;;;;;;;8.63;3.03;;;17.10;64.10;;;;;;9174718;19;20488;-66
2022/06/15 06:20:25;;;;;;;12.05;2.92;;;17.20;63.90;;;;;;9178045;19;20352;-67
2022/06/15 06:23:30;;;;;;;7.32;2.70;;;17.40;63.80;;;;;;9177474;19;20015;-67
2022/06/15 06:26:36;;;;;;;13.32;3.10;;;17.60;63.70;;;;;;9174676;19;20018;-66
2022/06/15 06:29:44;;;;;;;6.65;2.55;;;17.80;63.50;;;;;;9178744;19;20021;-67
2022/06/15 06:32:49;;;;;;;15.70;3.85;;;18.10;63.30;;;;;;9176634;19;20014;-67
2022/06/15 06:35:55;;;;;;;5.95;2.50;;;18.30;63.10;;;;;;9174768;19;20029;-67
2022/06/15 06:39:00;;;;;;;7.65;2.75;;;18.40;62.90;;;;;;9176710;19;20018;-67
2022/06/15 06:42:07;;;;;;;8.27;2.83;;;18.60;62.60;;;;;;9188050;19;20022;-66
2022/06/15 06:45:15;;;;;;;8.05;2.97;;;18.80;62.40;;;;;;9186346;19;20044;-67
2022/06/15 06:48:21;;;;;;;8.30;2.47;;;19.00;62.40;;;;;;9188579;19;20498;-65
2022/06/15 06:51:26;;;;;;;33.28;3.40;;;19.10;62.20;;;;;;9186960;19;20017;-69
2022/06/15 06:54:31;;;;;;;11.40;2.60;;;19.30;62.00;;;;;;9187946;19;20021;-67
2022/06/15 06:57:39;;;;;;;7.40;2.53;;;19.40;61.90;;;;;;9185642;19;20370;-68
2022/06/15 07:00:51;;;;;;;8.23;2.38;;;19.60;61.70;;;;;;9187194;19;20468;-68
2022/06/15 07:03:58;;;;;;;8.00;2.17;;;19.80;61.60;;;;;;9187095;19;20484;-68
2022/06/15 07:07:03;;;;;;;13.35;2.53;;;20.00;61.40;;;;;;9185712;19;20036;-67
2022/06/15 07:10:11;;;;;;;10.57;2.10;;;20.20;61.20;;;;;;9185489;19;20095;-68
2022/06/15 07:13:22;;;;;;;14.70;2.90;;;20.30;60.90;;;;;;9185509;19;20023;-68
2022/06/15 07:16:31;;;;;;;8.85;2.30;;;20.50;60.70;;;;;;9181754;19;20034;-67
2022/06/15 07:19:36;;;;;;;12.80;2.85;;;20.70;60.60;;;;;;9184305;19;20018;-68
2022/06/15 07:22:41;;;;;;;11.48;2.35;;;20.90;60.40;;;;;;9186754;19;20070;-68
2022/06/15 07:25:48;;;;;;;7.95;2.25;;;21.00;60.10;;;;;;9185111;19;20467;-68
2022/06/15 07:28:53;;;;;;;8.77;2.03;;;21.20;60.00;;;;;;9185436;19;20007;-68
2022/06/15 07:32:01;;;;;;;10.40;2.42;;;21.40;59.80;;;;;;9186720;19;20017;-67
2022/06/15 07:35:09;;;;;;;9.32;2.15;;;21.50;59.40;;;;;;9185731;19;20019;-69
2022/06/15 07:38:14;;;;;;;9.60;2.28;;;21.70;59.20;;;;;;9186235;19;20018;-68
2022/06/15 07:41:36;;;;;;;7.65;2.30;;;21.90;59.70;;;;;;9187238;19;20022;-69
2022/06/15 07:44:42;;;;;;;7.15;1.77;;;22.00;58.70;;;;;;9184653;19;20542;-68
2022/06/15 07:51:09;;;;;;;11.32;2.03;;;22.30;58.20;;;;;;9186040;19;20018;-68
2022/06/15 07:54:17;;;;;;;15.02;2.08;;;22.40;58.10;;;;;;9183927;19;20372;-68
2022/06/15 07:57:22;;;;;;;9.30;2.05;;;22.60;57.80;;;;;;9186220;19;20013;-68
2022/06/15 08:00:37;;;;;;;;;;;22.70;57.60;;;;;;9185986;19;20436;-68
2022/06/15 08:03:45;;;;;;;11.00;1.95;;;22.90;57.90;;;;;;9181308;19;19929;-68
2022/06/15 08:06:54;;;;;;;8.15;2.20;;;23.00;57.40;;;;;;9177845;19;20026;-68
2022/06/15 08:09:59;;;;;;;9.85;1.75;;;23.10;57.00;;;;;;9180646;19;20015;-68
2022/06/15 08:13:05;;;;;;;5.13;1.98;;;23.20;56.90;;;;;;9181504;19;20081;-69
2022/06/15 08:16:11;;;;;;;12.30;1.58;;;23.40;56.60;;;;;;9180354;19;20014;-69
2022/06/15 08:19:19;;;;;;;7.03;1.20;;;23.50;56.40;;;;;;9179818;19;20044;-68
2022/06/15 08:22:24;;;;;;;9.25;1.73;;;23.60;56.10;;;;;;9182178;19;20464;-69
2022/06/15 08:25:35;;;;;;;5.88;1.55;;;23.70;55.90;;;;;;9179209;19;20017;-70
2022/06/15 08:28:46;;;;;;;5.40;1.50;;;23.80;55.60;;;;;;9180064;19;20336;-69
2022/06/15 08:31:56;;;;;;;8.20;1.80;;;24.00;55.40;;;;;;9180879;19;20519;-70
2022/06/15 08:35:07;;;;;;;8.80;1.65;;;24.10;55.10;;;;;;9183242;19;20033;-68
2022/06/15 08:38:15;;;;;;;7.10;1.60;;;24.20;54.80;;;;;;9182489;19;20018;-70
2022/06/15 08:41:35;;;;;;;6.22;1.48;;;24.30;54.60;;;;;;9182972;19;20078;-68
2022/06/15 08:44:50;;;;;;;6.32;1.95;;;24.40;54.20;;;;;;9181916;19;20015;-68
2022/06/15 08:48:07;;;;;;;4.47;1.58;;;24.50;54.00;;;;;;9182746;19;20022;-70
2022/06/15 08:51:21;;;;;;;11.05;1.77;;;24.60;53.80;;;;;;9184302;19;20033;-68
2022/06/15 08:54:31;;;;;;;9.25;1.90;;;24.70;53.60;;;;;;9183013;19;20372;-68
2022/06/15 08:57:44;;;;;;;6.22;1.70;;;24.80;53.50;;;;;;9182677;19;20029;-68
2022/06/15 09:00:51;;;;;;;8.18;1.92;;;24.80;53.20;;;;;;9184497;19;20018;-69
2022/06/15 09:04:05;;;;;;;6.70;1.60;;;25.00;53.40;;;;;;9179668;19;20457;-68
2022/06/15 09:07:28;;;;;;;4.70;1.60;;;25.10;52.90;;;;;;9178614;19;20022;-68
2022/06/15 09:10:44;;;;;;;12.80;2.20;;;25.20;52.70;;;;;;9184268;19;20590;-69
2022/06/15 09:14:08;;;;;;;11.55;2.22;;;25.30;52.50;;;;;;9184061;19;20015;-69
2022/06/15 09:17:16;;;;;;;7.18;2.22;;;25.30;52.20;;;;;;9177833;19;20015;-68
2022/06/15 09:20:28;;;;;;;4.20;1.92;;;25.40;52.40;;;;;;9182189;19;20015;-69
2022/06/15 09:23:42;;;;;;;5.30;1.80;;;25.50;52.10;;;;;;9183360;19;20019;-69
2022/06/15 09:26:51;;;;;;;8.27;1.40;;;25.60;51.80;;;;;;9181602;19;20480;-66
2022/06/15 09:30:00;;;;;;;7.20;1.85;;;25.70;51.80;;;;;;9181012;19;20386;-65
2022/06/15 09:33:11;;;;;;;9.07;1.70;;;25.80;51.60;;;;;;9179698;19;20089;-67
2022/06/15 09:36:26;;;;;;;6.93;1.77;;;25.90;51.40;;;;;;9180059;19;20022;-67
2022/06/15 09:39:38;;;;;;;3.95;1.60;;;26.00;51.10;;;;;;9180465;19;20357;-65
2022/06/15 09:42:53;;;;;;;6.80;1.30;;;26.10;51.10;;;;;;9180384;19;20018;-66
2022/06/15 09:46:11;;;;;;;7.00;1.58;;;26.20;50.80;;;;;;9179722;19;20014;-66
2022/06/15 09:49:33;;;;;;;5.90;1.50;;;26.20;50.60;;;;;;9181010;19;20021;-65
2022/06/15 09:52:45;;;;;;;5.95;1.60;;;26.30;50.40;;;;;;9180188;19;20437;-66
2022/06/15 09:55:56;;;;;;;9.88;1.50;;;26.30;50.40;;;;;;9178084;19;20026;-67
2022/06/15 09:59:23;;;;;;;7.45;1.80;;;26.40;50.20;;;;;;9174903;19;20710;-66
2022/06/15 10:02:32;;;;;;;7.15;1.45;;;26.50;50.10;;;;;;9177182;19;20484;-64
2022/06/15 10:05:42;;;;;;;3.80;1.15;;;26.60;50.40;;;;;;9176031;19;20025;-66
2022/06/15 10:08:48;;;;;;;7.07;1.98;;;26.60;49.70;;;;;;9174019;19;20056;-64
2022/06/15 10:12:55;;;;;;;7.38;1.83;;;26.70;49.70;;;;;;9175977;19;20096;-64
2022/06/15 10:15:25;;;;;;;9.27;1.50;;;26.80;49.40;;;;;;9176366;19;20025;-64
2022/06/15 10:18:34;;;;;;;5.30;1.60;;;26.90;49.50;;;;;;9176517;19;20025;-64
2022/06/15 10:21:40;;;;;;;9.38;1.58;;;26.90;49.10;;;;;;9187624;19;20018;-64
2022/06/15 10:24:50;;;;;;;7.13;1.77;;;27.00;49.20;;;;;;9186759;19;20015;-64
2022/06/15 10:28:10;;;;;;;9.85;1.42;;;27.10;49.20;;;;;;9182248;19;20025;-65
2022/06/15 10:31:18;;;;;;;3.58;1.40;;;27.20;48.60;;;;;;9185243;19;20015;-64
2022/06/15 10:34:27;;;;;;;6.18;1.50;;;27.20;48.70;;;;;;9185355;19;20011;-65
2022/06/15 10:37:35;;;;;;;4.72;1.75;;;27.30;48.50;;;;;;9188063;19;20022;-65
2022/06/15 10:40:51;;;;;;;7.70;1.35;;;27.40;48.60;;;;;;9184016;19;20356;-68
2022/06/15 10:43:59;;;;;;;9.75;1.60;;;27.40;48.30;;;;;;9184803;19;20397;-65
2022/06/15 10:47:22;;;;;;;6.97;1.65;;;27.50;48.00;;;;;;9182480;19;20688;-66
2022/06/15 10:50:32;;;;;;;7.72;1.85;;;27.50;47.70;;;;;;9184561;19;20378;-67
2022/06/15 10:54:20;;;;;;;6.35;1.80;;;27.60;47.80;;;;;;9184636;19;20025;-66
2022/06/15 11:04:21;;;;;;;5.85;1.80;;;27.70;47.20;;;;;;9185733;19;20015;-65
2022/06/15 11:07:34;;;;;;;8.88;2.17;;;27.70;47.40;;;;;;9185608;19;20015;-65
2022/06/15 11:10:42;;;;;;;3.22;1.25;;;27.70;47.20;;;;;;9186687;19;20013;-65
2022/06/15 11:13:57;;;;;;;8.13;2.05;;;27.80;47.20;;;;;;9185827;19;20011;-65
2022/06/15 11:20:48;;;;;;;8.85;1.45;;;27.80;46.70;;;;;;9187291;19;20018;-67
2022/06/15 11:23:58;;;;;;;7.72;2.25;;;27.90;46.90;;;;;;9181235;19;20512;-65
2022/06/15 11:27:12;;;;;;;5.60;1.70;;;27.90;46.80;;;;;;9181989;19;20013;-72
2022/06/15 11:30:25;;;;;;;5.75;1.63;;;28.00;46.70;;;;;;9178330;19;20006;-73
2022/06/15 11:33:39;;;;;;;4.07;1.60;;;28.10;46.60;;;;;;9182315;19;20014;-74
2022/06/15 11:36:53;;;;;;;10.05;2.17;;;28.10;46.30;;;;;;9181257;19;20017;-71
2022/06/15 11:40:04;;;;;;;5.93;1.70;;;28.10;46.20;;;;;;9181506;19;20494;-70
2022/06/15 11:43:18;;;;;;;7.38;2.30;;;28.20;46.30;;;;;;9181624;19;20023;-70
2022/06/15 11:46:45;;;;;;;6.32;1.63;;;28.20;46.00;;;;;;9178873;19;20018;-73
2022/06/15 11:50:00;;;;;;;7.20;1.80;;;28.30;46.10;;;;;;9181624;19;20017;-71
2022/06/15 11:53:20;;;;;;;5.82;1.60;;;28.30;45.90;;;;;;9178786;19;20006;-71
2022/06/15 11:56:33;;;;;;;6.38;1.83;;;28.30;45.80;;;;;;9180348;19;20357;-69
2022/06/15 11:59:45;;;;;;;5.70;1.52;;;28.30;45.80;;;;;;9181042;19;20018;-69
2022/06/15 12:03:32;;;;;;;5.20;1.90;;;28.40;45.90;;;;;;9176226;19;20018;-70
2022/06/15 12:06:52;;;;;;;5.10;1.80;;;28.30;45.70;;;;;;9171472;19;20087;-70
2022/06/15 12:10:09;;;;;;;9.27;2.05;;;28.40;45.60;;;;;;9173672;19;20135;-69
2022/06/15 12:13:23;;;;;;;5.70;2.00;;;28.50;45.40;;;;;;9174584;19;20018;-70
2022/06/15 12:16:38;;;;;;;6.40;1.88;;;28.50;45.40;;;;;;9172629;19;20550;-70
2022/06/15 12:19:51;;;;;;;5.65;1.73;;;28.50;45.20;;;;;;9174384;19;20429;-69
2022/06/15 12:23:06;;;;;;;8.60;2.50;;;28.60;45.10;;;;;;9173374;19;20776;-68
2022/06/15 12:26:25;;;;;;;6.88;1.67;;;28.60;45.00;;;;;;9174280;19;20029;-69
2022/06/15 12:29:43;;;;;;;6.07;1.80;;;28.60;44.90;;;;;;9176657;19;20014;-68
2022/06/15 12:33:00;;;;;;;6.30;1.85;;;28.60;44.80;;;;;;9173491;19;20384;-69
2022/06/15 12:36:13;;;;;;;9.13;1.80;;;28.60;44.80;;;;;;9173657;19;20622;-70
2022/06/15 12:39:27;;;;;;;7.10;2.00;;;28.60;44.80;;;;;;9171741;19;20357;-71
2022/06/15 12:42:32;;;;;;;;;;;28.60;44.60;;;;;;9175489;19;20025;-72
2022/06/15 12:45:46;;;;;;;6.20;1.75;;;28.70;45.40;;;;;;9174059;19;19926;-70
2022/06/15 12:48:58;;;;;;;10.35;1.85;;;28.70;45.00;;;;;;9177029;19;20022;-71
2022/06/15 12:52:12;;;;;;;5.18;1.83;;;28.80;44.80;;;;;;9176346;19;20361;-69
2022/06/15 12:55:29;;;;;;;3.40;1.30;;;28.80;44.60;;;;;;9174997;19;20492;-71
2022/06/15 12:58:44;;;;;;;4.00;1.45;;;28.90;44.40;;;;;;9178777;19;20018;-73
2022/06/15 13:01:56;;;;;;;9.80;2.03;;;28.90;44.30;;;;;;9180161;19;20014;-72
2022/06/15 13:05:14;;;;;;;7.32;1.73;;;28.90;44.20;;;;;;9179382;19;20040;-68
2022/06/15 13:08:34;;;;;;;8.70;2.08;;;28.90;44.10;;;;;;9177132;19;20013;-70
2022/06/15 13:12:08;;;;;;;13.38;1.90;;;28.90;44.20;;;;;;9178114;19;20032;-70
2022/06/15 13:15:29;;;;;;;6.15;1.27;;;28.90;44.00;;;;;;9180732;19;20014;-67
2022/06/15 13:18:50;;;;;;;6.53;1.92;;;29.00;44.20;;;;;;9177762;19;20018;-71
2022/06/15 13:21:57;;;;;;;5.55;1.40;;;29.00;43.90;;;;;;9179085;19;20015;-72
2022/06/15 13:25:09;;;;;;;7.82;1.60;;;29.00;43.90;;;;;;9181972;19;20037;-72
2022/06/15 13:28:29;;;;;;;7.03;1.90;;;29.00;43.70;;;;;;9180962;19;20369;-71
2022/06/15 13:31:47;;;;;;;8.30;1.60;;;29.00;43.50;;;;;;9180148;19;20471;-71
2022/06/15 13:34:52;;;;;;;3.78;1.35;;;29.00;43.40;;;;;;9180639;19;20018;-69
2022/06/15 13:38:08;;;;;;;9.38;1.60;;;28.90;43.50;;;;;;9180924;19;20484;-68
2022/06/15 13:41:24;;;;;;;7.38;1.80;;;28.90;43.40;;;;;;9174804;19;20034;-66
2022/06/15 13:44:51;;;;;;;8.30;1.60;;;28.80;43.20;;;;;;9172244;19;20019;-67
2022/06/15 13:48:00;;;;;;;5.82;3.03;;;28.80;43.10;;;;;;9171654;19;20011;-67
2022/06/15 13:51:10;;;;;;;8.82;1.33;;;28.80;43.30;;;;;;9171107;19;20018;-67
2022/06/15 13:54:40;;;;;;;5.72;1.48;;;28.80;43.20;;;;;;9177185;19;20385;-69
2022/06/15 13:58:01;;;;;;;6.80;1.77;;;28.80;43.00;;;;;;9180654;19;20019;-70
2022/06/15 14:01:26;;;;;;;4.43;1.55;;;28.80;43.00;;;;;;9184622;19;20082;-69
2022/06/15 14:04:50;;;;;;;5.50;1.45;;;28.70;42.90;;;;;;9184224;19;20018;-70
2022/06/15 14:08:12;;;;;;;4.43;1.50;;;28.70;42.90;;;;;;9182057;19;20515;-69
2022/06/15 14:11:32;;;;;;;4.75;1.23;;;28.70;42.80;;;;;;9185889;19;20018;-69
2022/06/15 14:15:05;;;;;;;3.75;1.27;;;28.70;42.70;;;;;;9183901;19;20093;-66
2022/06/15 14:18:37;;;;;;;3.05;0.93;;;28.70;42.50;;;;;;9175704;19;20022;-70
2022/06/15 14:21:42;;;;;;;4.00;1.40;;;28.70;42.40;;;;;;9181654;19;20024;-68
2022/06/15 14:24:49;;;;;;;5.63;1.27;;;28.70;42.60;;;;;;9179473;19;20026;-69
2022/06/15 14:27:56;;;;;;;3.58;1.25;;;28.60;42.30;;;;;;9178840;19;20018;-67
2022/06/15 14:31:04;;;;;;;5.53;1.50;;;28.60;42.30;;;;;;9181144;19;20015;-68
2022/06/15 14:34:18;;;;;;;4.80;1.17;;;28.60;42.30;;;;;;9180834;19;20018;-69
2022/06/15 14:37:25;;;;;;;11.77;1.38;;;28.60;42.20;;;;;;9178773;19;20115;-68
2022/06/15 14:40:36;;;;;;;4.07;1.35;;;28.60;42.30;;;;;;9178873;19;20014;-68
2022/06/15 14:43:41;;;;;;;3.78;1.35;;;28.50;42.20;;;;;;9180816;19;20496;-68
2022/06/15 14:46:47;;;;;;;7.07;1.63;;;28.60;42.30;;;;;;9178878;19;20033;-70
2022/06/15 14:49:58;;;;;;;8.05;1.30;;;28.50;42.20;;;;;;9179810;19;20018;-70
2022/06/15 14:53:13;;;;;;;5.32;1.13;;;28.50;41.90;;;;;;9180917;19;20018;-70
2022/06/15 14:56:18;;;;;;;7.10;1.98;;;28.50;41.80;;;;;;9176335;19;20464;-71
2022/06/15 14:59:26;;;;;;;6.63;1.55;;;28.50;41.90;;;;;;9178578;19;20244;-71
2022/06/15 15:02:41;;;;;;;3.25;1.40;;;28.40;41.80;;;;;;9177684;19;20011;-68
2022/06/15 15:05:49;;;;;;;4.85;1.30;;;28.40;41.70;;;;;;9175791;19;20356;-69
2022/06/15 15:08:54;;;;;;;3.42;1.23;;;28.40;41.80;;;;;;9176969;19;20026;-68
2022/06/15 15:12:10;;;;;;;5.43;1.38;;;28.30;41.80;;;;;;9178534;19;20369;-69
2022/06/15 15:15:16;;;;;;;5.18;1.33;;;28.30;41.50;;;;;;9176693;19;20003;-69
2022/06/15 15:18:25;;;;;;;3.22;1.17;;;28.20;41.70;;;;;;9172832;19;20616;-69
2022/06/15 15:21:35;;;;;;;6.20;1.77;;;28.20;41.70;;;;;;9178603;19;20017;-69
2022/06/15 15:24:45;;;;;;;2.60;1.15;;;28.10;41.60;;;;;;9178892;19;20074;-71
2022/06/15 15:35:13;;;;;;;5.53;1.08;;;27.90;41.70;;;;;;9177072;19;20014;-69
2022/06/15 15:38:30;;;;;;;5.97;1.25;;;27.80;41.70;;;;;;9180601;19;20095;-68
2022/06/15 15:41:37;;;;;;;6.18;1.25;;;27.80;41.90;;;;;;9183864;19;20050;-67
2022/06/15 15:44:46;;;;;;;10.20;1.48;;;27.70;42.00;;;;;;9181573;19;20014;-65
2022/06/15 15:47:51;;;;;;;2.83;1.02;;;27.70;42.10;;;;;;9180429;19;20018;-66
2022/06/15 15:50:57;;;;;;;5.00;1.30;;;27.60;42.10;;;;;;9181034;19;20029;-67
2022/06/15 15:54:05;;;;;;;4.55;1.35;;;27.60;42.00;;;;;;9182041;19;20015;-66
2022/06/15 15:57:13;;;;;;;3.40;1.02;;;27.60;42.10;;;;;;9181741;19;20019;-66
2022/06/15 16:00:23;;;;;;;5.75;1.40;;;27.50;42.10;;;;;;9180204;19;20041;-67
2022/06/15 16:03:28;;;;;;;4.70;1.30;;;27.40;42.10;;;;;;9179963;19;20049;-67
2022/06/15 16:06:33;;;;;;;3.38;1.25;;;27.40;42.30;;;;;;9180588;19;20030;-66
2022/06/15 16:09:41;;;;;;;5.60;1.42;;;27.30;42.20;;;;;;9177712;19;20018;-66
2022/06/15 16:12:47;;;;;;;3.70;1.35;;;27.20;42.20;;;;;;9176683;19;20018;-67
2022/06/15 16:15:57;;;;;;;6.82;1.08;;;27.10;42.40;;;;;;9177525;19;20015;-67
2022/06/15 16:19:02;;;;;;;2.80;1.08;;;27.10;42.40;;;;;;9178629;19;20017;-68
2022/06/15 16:22:09;;;;;;;2.17;1.20;;;27.00;42.50;;;;;;9184269;19;20074;-66
2022/06/15 16:25:20;;;;;;;5.35;1.20;;;26.90;42.50;;;;;;9183280;19;20011;-66
2022/06/15 16:28:25;;;;;;;3.78;1.38;;;26.80;42.60;;;;;;9182900;19;20448;-65
2022/06/15 16:31:31;;;;;;;2.42;1.20;;;26.80;42.70;;;;;;9182262;19;20026;-66
2022/06/15 16:34:36;;;;;;;3.47;1.40;;;26.80;42.80;;;;;;9179713;19;20006;-68
2022/06/15 16:37:41;;;;;;;4.10;1.30;;;26.80;42.90;;;;;;9178474;19;20029;-70
2022/06/15 16:41:08;;;;;;;2.83;1.13;;;26.70;42.90;;;;;;9178630;19;20022;-67
2022/06/15 16:44:13;;;;;;;3.90;1.30;;;26.70;43.00;;;;;;9181750;19;20022;-69
2022/06/15 16:47:18;;;;;;;5.28;1.42;;;26.60;43.10;;;;;;9173113;19;20014;-71
2022/06/15 16:50:29;;;;;;;3.13;1.02;;;26.60;43.20;;;;;;9172518;19;20021;-69
2022/06/15 16:53:34;;;;;;;4.90;1.55;;;26.60;43.20;;;;;;9174693;19;20018;-69
2022/06/15 16:56:44;;;;;;;6.82;1.55;;;26.60;43.20;;;;;;9172754;19;20018;-69
2022/06/15 16:59:49;;;;;;;2.72;0.90;;;26.50;43.20;;;;;;9175555;19;20015;-68